sensor_id;sensor_type;location;lat;lon;timestamp;temperature;humidity
54796;DHT22;40693;43.884;20.340;2023-03-01T00:00:54;128.40;2252.80
54796;DHT22;40693;43.884;20.340;2023-03-01T00:03:20;128.40;2252.80
54796;DHT22;40693;43.884;20.340;2023-03-01T00:05:46;128.40;2252.80
54796;DHT22;40693;43.884;20.340;2023-03-01T00:08:12;128.50;2252.80
54796;DHT22;40693;43.884;20.340;2023-03-01T00:10:38;153.60;2252.80
54796;DHT22;40693;43.884;20.340;2023-03-01T00:13:04;128.50;2252.80
54796;DHT22;40693;43.884;20.340;2023-03-01T00:15:31;128.50;2252.80
54796;DHT22;40693;43.884;20.340;2023-03-01T00:17:57;128.40;2252.80
54796;DHT22;40693;43.884;20.340;2023-03-01T00:20:23;128.50;2252.80
54796;DHT22;40693;43.884;20.340;2023-03-01T00:22:49;128.50;2252.80
54796;DHT22;40693;43.884;20.340;2023-03-01T00:25:15;128.50;2252.80
54796;DHT22;40693;43.884;20.340;2023-03-01T00:27:41;128.40;2252.80
54796;DHT22;40693;43.884;20.340;2023-03-01T00:30:07;128.40;2252.80
54796;DHT22;40693;43.884;20.340;2023-03-01T00:32:33;128.30;2252.80
54796;DHT22;40693;43.884;20.340;2023-03-01T00:35:02;128.30;2252.80
54796;DHT22;40693;43.884;20.340;2023-03-01T00:37:28;128.30;2252.80
54796;DHT22;40693;43.884;20.340;2023-03-01T00:39:54;128.30;2252.80
54796;DHT22;40693;43.884;20.340;2023-03-01T00:42:20;128.30;2252.80
54796;DHT22;40693;43.884;20.340;2023-03-01T00:44:46;128.20;2252.80
54796;DHT22;40693;43.884;20.340;2023-03-01T00:47:11;128.10;2252.80
54796;DHT22;40693;43.884;20.340;2023-03-01T00:49:37;128.10;2252.80
54796;DHT22;40693;43.884;20.340;2023-03-01T00:52:03;128.20;2252.80
54796;DHT22;40693;43.884;20.340;2023-03-01T00:54:29;128.10;2252.80
54796;DHT22;40693;43.884;20.340;2023-03-01T00:56:55;128.20;2252.80
54796;DHT22;40693;43.884;20.340;2023-03-01T00:59:20;128.10;2252.80
54796;DHT22;40693;43.884;20.340;2023-03-01T01:01:46;128.10;2252.80
54796;DHT22;40693;43.884;20.340;2023-03-01T01:04:13;128.20;2252.80
54796;DHT22;40693;43.884;20.340;2023-03-01T01:06:42;128.00;2252.80
54796;DHT22;40693;43.884;20.340;2023-03-01T01:09:10;128.20;2252.80
54796;DHT22;40693;43.884;20.340;2023-03-01T01:11:46;128.20;2252.80
54796;DHT22;40693;43.884;20.340;2023-03-01T01:14:12;128.10;2252.80
54796;DHT22;40693;43.884;20.340;2023-03-01T01:16:38;128.10;2252.80
54796;DHT22;40693;43.884;20.340;2023-03-01T01:19:04;128.10;2252.80
54796;DHT22;40693;43.884;20.340;2023-03-01T01:21:31;128.10;2252.80
54796;DHT22;40693;43.884;20.340;2023-03-01T01:23:57;128.00;2252.80
54796;DHT22;40693;43.884;20.340;2023-03-01T01:26:26;128.10;2252.80
54796;DHT22;40693;43.884;20.340;2023-03-01T01:28:53;128.10;2252.80
54796;DHT22;40693;43.884;20.340;2023-03-01T01:31:19;128.10;2252.80
54796;DHT22;40693;43.884;20.340;2023-03-01T01:33:45;128.00;2252.80
54796;DHT22;40693;43.884;20.340;2023-03-01T01:36:11;128.00;2252.80
54796;DHT22;40693;43.884;20.340;2023-03-01T01:38:38;103.20;2227.20
54796;DHT22;40693;43.884;20.340;2023-03-01T01:41:05;128.10;2252.80
54796;DHT22;40693;43.884;20.340;2023-03-01T01:43:37;128.10;2252.80
54796;DHT22;40693;43.884;20.340;2023-03-01T01:46:30;128.10;2252.80
54796;DHT22;40693;43.884;20.340;2023-03-01T01:49:10;128.10;2252.80
54796;DHT22;40693;43.884;20.340;2023-03-01T01:51:41;128.10;2252.80
54796;DHT22;40693;43.884;20.340;2023-03-01T01:54:25;128.10;2252.80
54796;DHT22;40693;43.884;20.340;2023-03-01T01:56:56;128.10;2252.80
54796;DHT22;40693;43.884;20.340;2023-03-01T01:59:24;128.10;2252.80
54796;DHT22;40693;43.884;20.340;2023-03-01T02:01:54;128.10;2252.80
54796;DHT22;40693;43.884;20.340;2023-03-01T02:04:21;128.80;2252.80
54796;DHT22;40693;43.884;20.340;2023-03-01T02:06:54;128.10;2252.80
54796;DHT22;40693;43.884;20.340;2023-03-01T02:09:23;128.10;2252.80
54796;DHT22;40693;43.884;20.340;2023-03-01T02:11:50;128.00;2252.80
54796;DHT22;40693;43.884;20.340;2023-03-01T02:14:17;128.10;2252.80
54796;DHT22;40693;43.884;20.340;2023-03-01T02:16:43;128.00;2252.80
54796;DHT22;40693;43.884;20.340;2023-03-01T02:19:14;128.00;2252.80
54796;DHT22;40693;43.884;20.340;2023-03-01T02:22:00;128.00;2252.80
54796;DHT22;40693;43.884;20.340;2023-03-01T02:27:00;128.00;2252.80
54796;DHT22;40693;43.884;20.340;2023-03-01T02:29:27;103.10;2227.20
54796;DHT22;40693;43.884;20.340;2023-03-01T02:31:54;128.10;2252.80
54796;DHT22;40693;43.884;20.340;2023-03-01T02:34:24;128.10;2252.80
54796;DHT22;40693;43.884;20.340;2023-03-01T02:37:02;128.10;2252.80
54796;DHT22;40693;43.884;20.340;2023-03-01T02:39:37;128.10;2252.80
54796;DHT22;40693;43.884;20.340;2023-03-01T02:42:11;128.10;2252.80
54796;DHT22;40693;43.884;20.340;2023-03-01T02:44:37;128.10;2252.80
54796;DHT22;40693;43.884;20.340;2023-03-01T02:47:04;128.00;2252.80
54796;DHT22;40693;43.884;20.340;2023-03-01T02:49:33;128.00;2252.80
54796;DHT22;40693;43.884;20.340;2023-03-01T02:55:03;128.00;2252.80
54796;DHT22;40693;43.884;20.340;2023-03-01T02:57:31;128.00;2252.80
54796;DHT22;40693;43.884;20.340;2023-03-01T03:00:03;128.00;2252.80
54796;DHT22;40693;43.884;20.340;2023-03-01T03:02:34;128.00;2252.80
54796;DHT22;40693;43.884;20.340;2023-03-01T03:05:13;128.00;2252.80
54796;DHT22;40693;43.884;20.340;2023-03-01T03:07:41;128.00;2252.80
54796;DHT22;40693;43.884;20.340;2023-03-01T03:10:14;128.00;2252.80
54796;DHT22;40693;43.884;20.340;2023-03-01T03:12:41;128.00;2252.80
54796;DHT22;40693;43.884;20.340;2023-03-01T03:15:09;128.00;2252.80
54796;DHT22;40693;43.884;20.340;2023-03-01T03:17:39;128.00;2252.80
54796;DHT22;40693;43.884;20.340;2023-03-01T03:20:07;103.30;2227.20
54796;DHT22;40693;43.884;20.340;2023-03-01T03:22:40;103.30;2227.20
54796;DHT22;40693;43.884;20.340;2023-03-01T03:25:09;103.30;2227.20
54796;DHT22;40693;43.884;20.340;2023-03-01T03:27:38;128.00;2252.80
54796;DHT22;40693;43.884;20.340;2023-03-01T03:30:06;128.00;2252.80
54796;DHT22;40693;43.884;20.340;2023-03-01T03:32:40;128.00;2252.80
54796;DHT22;40693;43.884;20.340;2023-03-01T03:35:08;128.00;2252.80
54796;DHT22;40693;43.884;20.340;2023-03-01T03:37:39;128.10;2252.80
54796;DHT22;40693;43.884;20.340;2023-03-01T03:40:25;128.10;2252.80
54796;DHT22;40693;43.884;20.340;2023-03-01T03:42:51;128.10;2252.80
54796;DHT22;40693;43.884;20.340;2023-03-01T03:45:18;128.10;2252.80
54796;DHT22;40693;43.884;20.340;2023-03-01T03:47:44;103.30;2227.20
54796;DHT22;40693;43.884;20.340;2023-03-01T03:50:12;128.10;2252.80
54796;DHT22;40693;43.884;20.340;2023-03-01T03:52:38;128.10;2252.80
54796;DHT22;40693;43.884;20.340;2023-03-01T03:55:05;128.10;2252.80
54796;DHT22;40693;43.884;20.340;2023-03-01T03:57:40;128.10;2252.80
54796;DHT22;40693;43.884;20.340;2023-03-01T04:00:10;128.00;2252.80
54796;DHT22;40693;43.884;20.340;2023-03-01T04:02:42;128.00;2252.80
54796;DHT22;40693;43.884;20.340;2023-03-01T04:05:10;128.00;2252.80
54796;DHT22;40693;43.884;20.340;2023-03-01T04:07:37;128.00;2252.80
54796;DHT22;40693;43.884;20.340;2023-03-01T04:10:09;128.00;2252.80
54796;DHT22;40693;43.884;20.340;2023-03-01T04:12:35;128.00;2252.80
54796;DHT22;40693;43.884;20.340;2023-03-01T04:15:03;102.90;2227.20
54796;DHT22;40693;43.884;20.340;2023-03-01T04:17:54;128.00;2252.80
54796;DHT22;40693;43.884;20.340;2023-03-01T04:20:23;128.00;2252.80
54796;DHT22;40693;43.884;20.340;2023-03-01T04:22:57;128.00;2252.80
54796;DHT22;40693;43.884;20.340;2023-03-01T04:25:23;128.00;2252.80
54796;DHT22;40693;43.884;20.340;2023-03-01T04:27:49;128.00;2252.80
54796;DHT22;40693;43.884;20.340;2023-03-01T04:30:15;128.10;2252.80
54796;DHT22;40693;43.884;20.340;2023-03-01T04:32:41;128.10;2252.80
54796;DHT22;40693;43.884;20.340;2023-03-01T04:35:08;128.00;2252.80
54796;DHT22;40693;43.884;20.340;2023-03-01T04:37:34;128.70;2252.80
54796;DHT22;40693;43.884;20.340;2023-03-01T04:40:01;128.00;2252.80
54796;DHT22;40693;43.884;20.340;2023-03-01T04:42:37;128.00;2252.80
54796;DHT22;40693;43.884;20.340;2023-03-01T04:45:04;128.00;2252.80
54796;DHT22;40693;43.884;20.340;2023-03-01T04:47:39;128.00;2252.80
54796;DHT22;40693;43.884;20.340;2023-03-01T04:50:05;128.10;2252.80
54796;DHT22;40693;43.884;20.340;2023-03-01T04:52:31;128.00;2252.80
54796;DHT22;40693;43.884;20.340;2023-03-01T04:54:57;128.00;2252.80
54796;DHT22;40693;43.884;20.340;2023-03-01T04:57:23;128.00;2252.80
54796;DHT22;40693;43.884;20.340;2023-03-01T04:59:49;128.10;2252.80
54796;DHT22;40693;43.884;20.340;2023-03-01T05:02:14;128.10;2252.80
54796;DHT22;40693;43.884;20.340;2023-03-01T05:04:40;128.10;2252.80
54796;DHT22;40693;43.884;20.340;2023-03-01T05:07:06;128.20;2252.80
54796;DHT22;40693;43.884;20.340;2023-03-01T05:09:32;128.20;2252.80
54796;DHT22;40693;43.884;20.340;2023-03-01T05:11:58;128.30;2252.80
54796;DHT22;40693;43.884;20.340;2023-03-01T05:14:26;128.20;2252.80
54796;DHT22;40693;43.884;20.340;2023-03-01T05:16:52;128.30;2252.80
54796;DHT22;40693;43.884;20.340;2023-03-01T05:19:18;128.30;2252.80
54796;DHT22;40693;43.884;20.340;2023-03-01T05:21:48;128.30;2252.80
54796;DHT22;40693;43.884;20.340;2023-03-01T05:24:34;128.30;2252.80
54796;DHT22;40693;43.884;20.340;2023-03-01T05:27:01;128.30;2252.80
54796;DHT22;40693;43.884;20.340;2023-03-01T05:29:28;128.30;2252.80
54796;DHT22;40693;43.884;20.340;2023-03-01T05:31:59;128.20;2252.80
54796;DHT22;40693;43.884;20.340;2023-03-01T05:34:29;128.20;2252.80
54796;DHT22;40693;43.884;20.340;2023-03-01T05:36:55;128.30;2252.80
54796;DHT22;40693;43.884;20.340;2023-03-01T05:39:23;128.30;2252.80
54796;DHT22;40693;43.884;20.340;2023-03-01T05:41:53;128.30;2252.80
54796;DHT22;40693;43.884;20.340;2023-03-01T05:44:19;128.20;2252.80
54796;DHT22;40693;43.884;20.340;2023-03-01T05:46:45;128.20;2252.80
54796;DHT22;40693;43.884;20.340;2023-03-01T05:49:12;128.20;2252.80
54796;DHT22;40693;43.884;20.340;2023-03-01T05:51:43;128.20;2252.80
54796;DHT22;40693;43.884;20.340;2023-03-01T05:54:12;128.20;2252.80
54796;DHT22;40693;43.884;20.340;2023-03-01T05:56:38;128.10;2252.80
54796;DHT22;40693;43.884;20.340;2023-03-01T05:59:04;128.10;2252.80
54796;DHT22;40693;43.884;20.340;2023-03-01T06:01:34;128.10;2252.80
54796;DHT22;40693;43.884;20.340;2023-03-01T06:04:00;128.10;2252.80
54796;DHT22;40693;43.884;20.340;2023-03-01T06:06:26;102.90;2227.20
54796;DHT22;40693;43.884;20.340;2023-03-01T06:08:53;128.10;2252.80
54796;DHT22;40693;43.884;20.340;2023-03-01T06:11:20;128.10;2252.80
54796;DHT22;40693;43.884;20.340;2023-03-01T06:13:46;128.10;2252.80
54796;DHT22;40693;43.884;20.340;2023-03-01T06:16:12;128.10;2252.80
54796;DHT22;40693;43.884;20.340;2023-03-01T06:18:38;103.20;2227.20
54796;DHT22;40693;43.884;20.340;2023-03-01T06:21:06;128.10;2252.80
54796;DHT22;40693;43.884;20.340;2023-03-01T06:23:33;128.10;2252.80
54796;DHT22;40693;43.884;20.340;2023-03-01T06:25:59;128.10;2252.80
54796;DHT22;40693;43.884;20.340;2023-03-01T06:28:25;128.20;2252.80
54796;DHT22;40693;43.884;20.340;2023-03-01T06:30:51;128.20;2252.80
54796;DHT22;40693;43.884;20.340;2023-03-01T06:33:18;128.30;2252.80
54796;DHT22;40693;43.884;20.340;2023-03-01T06:35:48;128.30;2252.80
54796;DHT22;40693;43.884;20.340;2023-03-01T06:38:14;128.30;2252.80
54796;DHT22;40693;43.884;20.340;2023-03-01T06:40:44;128.30;2252.80
54796;DHT22;40693;43.884;20.340;2023-03-01T06:43:16;128.30;2252.80
54796;DHT22;40693;43.884;20.340;2023-03-01T06:45:42;128.30;2252.80
54796;DHT22;40693;43.884;20.340;2023-03-01T06:48:08;128.40;2252.80
54796;DHT22;40693;43.884;20.340;2023-03-01T06:50:34;128.30;2252.80
54796;DHT22;40693;43.884;20.340;2023-03-01T06:53:00;128.40;2252.80
54796;DHT22;40693;43.884;20.340;2023-03-01T06:55:26;128.40;2252.80
54796;DHT22;40693;43.884;20.340;2023-03-01T06:57:56;128.40;2252.80
54796;DHT22;40693;43.884;20.340;2023-03-01T07:00:22;128.40;2252.80
54796;DHT22;40693;43.884;20.340;2023-03-01T07:02:48;128.40;2252.80
54796;DHT22;40693;43.884;20.340;2023-03-01T07:05:14;128.40;2252.80
54796;DHT22;40693;43.884;20.340;2023-03-01T07:07:40;128.50;2252.80
54796;DHT22;40693;43.884;20.340;2023-03-01T07:10:06;128.50;2252.80
54796;DHT22;40693;43.884;20.340;2023-03-01T07:12:32;128.50;2252.80
54796;DHT22;40693;43.884;20.340;2023-03-01T07:14:58;128.60;2252.80
54796;DHT22;40693;43.884;20.340;2023-03-01T07:17:24;128.60;2252.80
54796;DHT22;40693;43.884;20.340;2023-03-01T07:19:50;128.60;2252.80
54796;DHT22;40693;43.884;20.340;2023-03-01T07:22:16;128.60;2252.80
54796;DHT22;40693;43.884;20.340;2023-03-01T07:24:42;128.60;2252.80
54796;DHT22;40693;43.884;20.340;2023-03-01T07:27:08;128.10;2252.80
54796;DHT22;40693;43.884;20.340;2023-03-01T07:29:34;128.70;2252.80
54796;DHT22;40693;43.884;20.340;2023-03-01T07:32:02;128.50;2252.80
54796;DHT22;40693;43.884;20.340;2023-03-01T07:34:28;128.50;2252.80
54796;DHT22;40693;43.884;20.340;2023-03-01T07:36:54;128.60;2252.80
54796;DHT22;40693;43.884;20.340;2023-03-01T07:39:21;128.60;2252.80
54796;DHT22;40693;43.884;20.340;2023-03-01T07:41:48;128.60;2252.80
54796;DHT22;40693;43.884;20.340;2023-03-01T07:44:14;128.40;2252.80
54796;DHT22;40693;43.884;20.340;2023-03-01T07:46:42;128.60;2252.80
54796;DHT22;40693;43.884;20.340;2023-03-01T07:49:07;128.60;2252.80
54796;DHT22;40693;43.884;20.340;2023-03-01T07:51:33;128.60;2252.80
54796;DHT22;40693;43.884;20.340;2023-03-01T07:53:59;128.50;2252.80
54796;DHT22;40693;43.884;20.340;2023-03-01T07:56:25;128.50;2252.80
54796;DHT22;40693;43.884;20.340;2023-03-01T07:58:50;128.50;2252.80
54796;DHT22;40693;43.884;20.340;2023-03-01T08:01:19;128.60;2252.80
54796;DHT22;40693;43.884;20.340;2023-03-01T08:03:45;128.70;2252.80
54796;DHT22;40693;43.884;20.340;2023-03-01T08:06:13;128.70;2252.80
54796;DHT22;40693;43.884;20.340;2023-03-01T08:08:39;128.80;2252.80
54796;DHT22;40693;43.884;20.340;2023-03-01T08:11:06;128.80;2252.80
54796;DHT22;40693;43.884;20.340;2023-03-01T08:13:32;128.70;2252.80
54796;DHT22;40693;43.884;20.340;2023-03-01T08:16:07;128.60;2252.80
54796;DHT22;40693;43.884;20.340;2023-03-01T08:18:33;128.50;2252.80
54796;DHT22;40693;43.884;20.340;2023-03-01T08:21:07;128.60;2252.80
54796;DHT22;40693;43.884;20.340;2023-03-01T08:23:34;128.60;2252.80
54796;DHT22;40693;43.884;20.340;2023-03-01T08:26:08;128.60;2252.80
54796;DHT22;40693;43.884;20.340;2023-03-01T08:28:44;128.70;2252.80
54796;DHT22;40693;43.884;20.340;2023-03-01T08:31:34;128.70;2252.80
54796;DHT22;40693;43.884;20.340;2023-03-01T08:34:03;128.80;2252.80
54796;DHT22;40693;43.884;20.340;2023-03-01T08:36:35;128.80;2252.80
54796;DHT22;40693;43.884;20.340;2023-03-01T08:39:01;128.80;2252.80
54796;DHT22;40693;43.884;20.340;2023-03-01T08:41:27;128.90;2252.80
54796;DHT22;40693;43.884;20.340;2023-03-01T08:43:53;153.60;2252.80
54796;DHT22;40693;43.884;20.340;2023-03-01T08:46:27;128.90;2252.80
54796;DHT22;40693;43.884;20.340;2023-03-01T08:48:52;128.90;2252.80
54796;DHT22;40693;43.884;20.340;2023-03-01T08:51:20;153.60;2252.80
54796;DHT22;40693;43.884;20.340;2023-03-01T08:53:47;153.70;2252.80
54796;DHT22;40693;43.884;20.340;2023-03-01T08:56:13;153.80;2252.80
54796;DHT22;40693;43.884;20.340;2023-03-01T08:58:40;153.70;2252.80
54796;DHT22;40693;43.884;20.340;2023-03-01T09:01:10;153.90;2252.80
54796;DHT22;40693;43.884;20.340;2023-03-01T09:03:36;153.90;2252.80
54796;DHT22;40693;43.884;20.340;2023-03-01T09:06:03;153.90;2252.80
54796;DHT22;40693;43.884;20.340;2023-03-01T09:08:30;153.90;2252.80
54796;DHT22;40693;43.884;20.340;2023-03-01T09:10:56;154.00;2252.80
54796;DHT22;40693;43.884;20.340;2023-03-01T09:13:22;154.00;2252.80
54796;DHT22;40693;43.884;20.340;2023-03-01T09:15:51;154.00;2252.80
54796;DHT22;40693;43.884;20.340;2023-03-01T09:18:17;154.00;2252.80
54796;DHT22;40693;43.884;20.340;2023-03-01T09:20:43;154.10;2252.80
54796;DHT22;40693;43.884;20.340;2023-03-01T09:23:08;154.00;2252.80
54796;DHT22;40693;43.884;20.340;2023-03-01T09:25:34;154.10;2252.80
54796;DHT22;40693;43.884;20.340;2023-03-01T09:28:01;154.10;2252.80
54796;DHT22;40693;43.884;20.340;2023-03-01T09:30:26;154.10;2252.80
54796;DHT22;40693;43.884;20.340;2023-03-01T09:32:53;154.20;2252.80
54796;DHT22;40693;43.884;20.340;2023-03-01T09:35:18;154.10;2252.80
54796;DHT22;40693;43.884;20.340;2023-03-01T09:37:45;154.20;2252.80
54796;DHT22;40693;43.884;20.340;2023-03-01T09:40:32;154.30;2252.80
54796;DHT22;40693;43.884;20.340;2023-03-01T09:45:53;154.40;2252.80
54796;DHT22;40693;43.884;20.340;2023-03-01T09:48:30;154.40;2252.80
54796;DHT22;40693;43.884;20.340;2023-03-01T09:51:01;154.40;2252.80
54796;DHT22;40693;43.884;20.340;2023-03-01T09:53:32;154.50;2252.80
54796;DHT22;40693;43.884;20.340;2023-03-01T09:56:05;154.50;2252.80
54796;DHT22;40693;43.884;20.340;2023-03-01T09:58:39;154.50;2252.80
54796;DHT22;40693;43.884;20.340;2023-03-01T10:01:49;154.50;2252.80
54796;DHT22;40693;43.884;20.340;2023-03-01T10:04:42;179.20;2252.80
54796;DHT22;40693;43.884;20.340;2023-03-01T10:09:38;179.20;2252.80
54796;DHT22;40693;43.884;20.340;2023-03-01T10:12:30;154.50;2252.80
54796;DHT22;40693;43.884;20.340;2023-03-01T10:15:08;154.50;2252.80
54796;DHT22;40693;43.884;20.340;2023-03-01T10:17:51;154.50;2252.80
54796;DHT22;40693;43.884;20.340;2023-03-01T10:20:24;179.20;2252.80
54796;DHT22;40693;43.884;20.340;2023-03-01T10:22:51;154.50;2252.80
54796;DHT22;40693;43.884;20.340;2023-03-01T10:25:47;179.20;2252.80
54796;DHT22;40693;43.884;20.340;2023-03-01T10:31:27;179.30;2252.80
54796;DHT22;40693;43.884;20.340;2023-03-01T10:34:07;179.30;2252.80
54796;DHT22;40693;43.884;20.340;2023-03-01T10:36:34;179.30;2252.80
54796;DHT22;40693;43.884;20.340;2023-03-01T10:39:26;179.40;2252.80
54796;DHT22;40693;43.884;20.340;2023-03-01T10:41:57;179.40;2252.80
54796;DHT22;40693;43.884;20.340;2023-03-01T10:44:53;179.50;2252.80
54796;DHT22;40693;43.884;20.340;2023-03-01T10:47:27;179.50;2252.80
54796;DHT22;40693;43.884;20.340;2023-03-01T10:49:58;179.50;2252.80
54796;DHT22;40693;43.884;20.340;2023-03-01T10:52:30;179.60;2252.80
54796;DHT22;40693;43.884;20.340;2023-03-01T10:54:59;179.60;2252.80
54796;DHT22;40693;43.884;20.340;2023-03-01T10:57:32;179.60;2252.80
54796;DHT22;40693;43.884;20.340;2023-03-01T11:00:22;179.60;2252.80
54796;DHT22;40693;43.884;20.340;2023-03-01T11:03:08;179.60;2252.80
54796;DHT22;40693;43.884;20.340;2023-03-01T11:05:35;179.60;2252.80
54796;DHT22;40693;43.884;20.340;2023-03-01T11:08:02;179.60;2252.80
54796;DHT22;40693;43.884;20.340;2023-03-01T11:10:33;179.70;2252.80
54796;DHT22;40693;43.884;20.340;2023-03-01T11:13:15;179.70;2252.80
54796;DHT22;40693;43.884;20.340;2023-03-01T11:15:41;179.70;2252.80
54796;DHT22;40693;43.884;20.340;2023-03-01T11:18:22;179.70;2252.80
54796;DHT22;40693;43.884;20.340;2023-03-01T11:20:51;179.80;2252.80
54796;DHT22;40693;43.884;20.340;2023-03-01T11:23:19;179.80;2252.80
54796;DHT22;40693;43.884;20.340;2023-03-01T11:25:57;179.80;2252.80
54796;DHT22;40693;43.884;20.340;2023-03-01T11:28:26;179.80;2252.80
54796;DHT22;40693;43.884;20.340;2023-03-01T11:31:08;179.80;2252.80
54796;DHT22;40693;43.884;20.340;2023-03-01T11:38:55;179.90;2252.80
54796;DHT22;40693;43.884;20.340;2023-03-01T11:41:26;179.90;2252.80
54796;DHT22;40693;43.884;20.340;2023-03-01T11:44:01;179.90;2252.80
54796;DHT22;40693;43.884;20.340;2023-03-01T11:46:49;179.90;2252.80
54796;DHT22;40693;43.884;20.340;2023-03-01T11:49:26;179.90;2252.80
54796;DHT22;40693;43.884;20.340;2023-03-01T11:57:46;179.60;2252.80
54796;DHT22;40693;43.884;20.340;2023-03-01T12:14:08;179.90;2252.80
54796;DHT22;40693;43.884;20.340;2023-03-01T12:19:26;179.90;2252.80
54796;DHT22;40693;43.884;20.340;2023-03-01T12:22:13;179.90;2252.80
54796;DHT22;40693;43.884;20.340;2023-03-01T12:25:12;179.90;2252.80
54796;DHT22;40693;43.884;20.340;2023-03-01T12:33:11;179.90;2252.80
54796;DHT22;40693;43.884;20.340;2023-03-01T12:51:31;180.00;2252.80
54796;DHT22;40693;43.884;20.340;2023-03-01T12:53:59;180.10;2252.80
54796;DHT22;40693;43.884;20.340;2023-03-01T12:56:32;204.80;2252.80
54796;DHT22;40693;43.884;20.340;2023-03-01T13:10:31;204.80;2252.80
54796;DHT22;40693;43.884;20.340;2023-03-01T13:20:48;204.80;2252.80
54796;DHT22;40693;43.884;20.340;2023-03-01T13:33:47;204.80;2252.80
54796;DHT22;40693;43.884;20.340;2023-03-01T13:46:53;204.80;2252.80
54796;DHT22;40693;43.884;20.340;2023-03-01T13:49:25;204.80;2252.80
54796;DHT22;40693;43.884;20.340;2023-03-01T13:51:52;204.90;2252.80
54796;DHT22;40693;43.884;20.340;2023-03-01T13:54:38;204.90;2252.80
54796;DHT22;40693;43.884;20.340;2023-03-01T13:57:04;205.00;2252.80
54796;DHT22;40693;43.884;20.340;2023-03-01T13:59:30;205.00;2252.80
54796;DHT22;40693;43.884;20.340;2023-03-01T14:02:00;205.00;2252.80
54796;DHT22;40693;43.884;20.340;2023-03-01T14:04:32;205.00;2252.80
54796;DHT22;40693;43.884;20.340;2023-03-01T14:07:19;205.00;2252.80
54796;DHT22;40693;43.884;20.340;2023-03-01T14:09:52;205.00;2252.80
54796;DHT22;40693;43.884;20.340;2023-03-01T14:15:22;205.10;2252.80
54796;DHT22;40693;43.884;20.340;2023-03-01T14:20:27;205.20;2252.80
54796;DHT22;40693;43.884;20.340;2023-03-01T14:22:55;205.20;2252.80
54796;DHT22;40693;43.884;20.340;2023-03-01T14:25:25;205.30;2252.80
54796;DHT22;40693;43.884;20.340;2023-03-01T14:30:37;205.40;2252.80
54796;DHT22;40693;43.884;20.340;2023-03-01T14:33:16;205.40;2252.80
54796;DHT22;40693;43.884;20.340;2023-03-01T14:35:51;205.40;2252.80
54796;DHT22;40693;43.884;20.340;2023-03-01T14:38:22;205.30;2252.80
54796;DHT22;40693;43.884;20.340;2023-03-01T14:40:55;205.60;2252.80
54796;DHT22;40693;43.884;20.340;2023-03-01T14:43:23;205.30;2252.80
54796;DHT22;40693;43.884;20.340;2023-03-01T14:45:51;205.30;2252.80
54796;DHT22;40693;43.884;20.340;2023-03-01T14:48:18;205.20;2252.80
54796;DHT22;40693;43.884;20.340;2023-03-01T14:50:45;205.30;2252.80
54796;DHT22;40693;43.884;20.340;2023-03-01T14:53:24;205.30;2252.80
54796;DHT22;40693;43.884;20.340;2023-03-01T14:56:00;205.30;2252.80
54796;DHT22;40693;43.884;20.340;2023-03-01T14:58:32;205.20;2252.80
54796;DHT22;40693;43.884;20.340;2023-03-01T15:01:00;205.20;2252.80
54796;DHT22;40693;43.884;20.340;2023-03-01T15:03:31;205.20;2252.80
54796;DHT22;40693;43.884;20.340;2023-03-01T15:06:05;205.20;2252.80
54796;DHT22;40693;43.884;20.340;2023-03-01T15:08:47;205.20;2252.80
54796;DHT22;40693;43.884;20.340;2023-03-01T15:11:32;205.20;2252.80
54796;DHT22;40693;43.884;20.340;2023-03-01T15:13:58;205.20;2252.80
54796;DHT22;40693;43.884;20.340;2023-03-01T15:16:39;205.10;2252.80
54796;DHT22;40693;43.884;20.340;2023-03-01T15:19:07;205.10;2252.80
54796;DHT22;40693;43.884;20.340;2023-03-01T15:21:41;205.10;2252.80
54796;DHT22;40693;43.884;20.340;2023-03-01T15:26:59;205.00;2252.80
54796;DHT22;40693;43.884;20.340;2023-03-01T15:29:34;205.00;2252.80
54796;DHT22;40693;43.884;20.340;2023-03-01T15:32:30;204.90;2252.80
54796;DHT22;40693;43.884;20.340;2023-03-01T15:35:00;204.90;2252.80
54796;DHT22;40693;43.884;20.340;2023-03-01T15:37:49;205.10;2252.80
54796;DHT22;40693;43.884;20.340;2023-03-01T15:40:23;205.20;2252.80
54796;DHT22;40693;43.884;20.340;2023-03-01T15:42:57;205.20;2252.80
54796;DHT22;40693;43.884;20.340;2023-03-01T15:45:27;205.20;2252.80
54796;DHT22;40693;43.884;20.340;2023-03-01T15:50:28;205.10;2252.80
54796;DHT22;40693;43.884;20.340;2023-03-01T15:52:55;205.10;2252.80
54796;DHT22;40693;43.884;20.340;2023-03-01T15:55:29;205.10;2252.80
54796;DHT22;40693;43.884;20.340;2023-03-01T15:58:28;205.10;2252.80
54796;DHT22;40693;43.884;20.340;2023-03-01T16:00:54;205.10;2252.80
54796;DHT22;40693;43.884;20.340;2023-03-01T16:03:24;205.10;2252.80
54796;DHT22;40693;43.884;20.340;2023-03-01T16:05:50;205.00;2252.80
54796;DHT22;40693;43.884;20.340;2023-03-01T16:08:19;205.00;2252.80
54796;DHT22;40693;43.884;20.340;2023-03-01T16:10:46;205.10;2252.80
54796;DHT22;40693;43.884;20.340;2023-03-01T16:13:13;205.10;2252.80
54796;DHT22;40693;43.884;20.340;2023-03-01T16:15:40;205.00;2252.80
54796;DHT22;40693;43.884;20.340;2023-03-01T16:18:07;205.00;2252.80
54796;DHT22;40693;43.884;20.340;2023-03-01T16:20:35;204.80;2252.80
54796;DHT22;40693;43.884;20.340;2023-03-01T16:23:07;204.80;2252.80
54796;DHT22;40693;43.884;20.340;2023-03-01T16:25:35;204.80;2252.80
54796;DHT22;40693;43.884;20.340;2023-03-01T16:28:01;204.90;2252.80
54796;DHT22;40693;43.884;20.340;2023-03-01T16:30:30;204.80;2252.80
54796;DHT22;40693;43.884;20.340;2023-03-01T16:32:56;204.80;2252.80
54796;DHT22;40693;43.884;20.340;2023-03-01T16:35:22;204.90;2252.80
54796;DHT22;40693;43.884;20.340;2023-03-01T16:37:49;204.90;2252.80
54796;DHT22;40693;43.884;20.340;2023-03-01T16:40:20;204.90;2252.80
54796;DHT22;40693;43.884;20.340;2023-03-01T16:42:50;204.90;2252.80
54796;DHT22;40693;43.884;20.340;2023-03-01T16:45:16;204.90;2252.80
54796;DHT22;40693;43.884;20.340;2023-03-01T16:47:42;204.90;2252.80
54796;DHT22;40693;43.884;20.340;2023-03-01T16:50:09;205.00;2252.80